sensor_id;sensor_type;location;lat;lon;timestamp;pressure;altitude;pressure_sealevel;temperature;humidity
64368;BME280;50692;53.314;-6.300;2023-02-08T00:01:16;103148.41;;;7.21;84.40
64368;BME280;50692;53.314;-6.300;2023-02-08T00:04:02;103148.38;;;7.23;84.31
64368;BME280;50692;53.314;-6.300;2023-02-08T00:06:48;103150.13;;;7.22;84.61
64368;BME280;50692;53.314;-6.300;2023-02-08T00:09:34;103153.66;;;7.23;84.65
64368;BME280;50692;53.314;-6.300;2023-02-08T00:12:20;103144.00;;;7.25;84.86
64368;BME280;50692;53.314;-6.300;2023-02-08T00:15:06;103148.38;;;7.26;85.01
64368;BME280;50692;53.314;-6.300;2023-02-08T00:17:52;103146.66;;;7.28;84.72
64368;BME280;50692;53.314;-6.300;2023-02-08T00:20:40;103137.00;;;7.32;84.63
64368;BME280;50692;53.314;-6.300;2023-02-08T00:23:26;103137.88;;;7.35;84.63
64368;BME280;50692;53.314;-6.300;2023-02-08T00:26:12;103134.38;;;7.38;84.79
64368;BME280;50692;53.314;-6.300;2023-02-08T00:28:59;103129.94;;;7.44;84.74
64368;BME280;50692;53.314;-6.300;2023-02-08T00:31:45;103132.56;;;7.51;84.56
64368;BME280;50692;53.314;-6.300;2023-02-08T00:34:31;103120.31;;;7.53;84.91
64368;BME280;50692;53.314;-6.300;2023-02-08T00:37:16;103114.16;;;7.60;84.60
64368;BME280;50692;53.314;-6.300;2023-02-08T00:40:03;103115.00;;;7.62;84.84
64368;BME280;50692;53.314;-6.300;2023-02-08T00:42:50;103107.13;;;7.66;84.69
64368;BME280;50692;53.314;-6.300;2023-02-08T00:45:36;103106.22;;;7.66;84.75
64368;BME280;50692;53.314;-6.300;2023-02-08T00:48:22;103095.69;;;7.69;84.79
64368;BME280;50692;53.314;-6.300;2023-02-08T00:51:12;103088.66;;;7.74;84.87
64368;BME280;50692;53.314;-6.300;2023-02-08T00:53:58;103086.88;;;7.79;84.74
64368;BME280;50692;53.314;-6.300;2023-02-08T00:56:44;103077.22;;;7.81;84.73
64368;BME280;50692;53.314;-6.300;2023-02-08T00:59:30;103077.19;;;7.89;84.40
64368;BME280;50692;53.314;-6.300;2023-02-08T01:02:16;103074.50;;;7.98;84.10
64368;BME280;50692;53.314;-6.300;2023-02-08T01:05:02;103066.63;;;7.97;84.21
64368;BME280;50692;53.314;-6.300;2023-02-08T01:07:48;103069.25;;;8.00;84.18
64368;BME280;50692;53.314;-6.300;2023-02-08T01:10:34;103070.13;;;8.00;84.11
64368;BME280;50692;53.314;-6.300;2023-02-08T01:13:20;103072.72;;;8.05;83.96
64368;BME280;50692;53.314;-6.300;2023-02-08T01:16:11;103066.56;;;8.04;84.12
64368;BME280;50692;53.314;-6.300;2023-02-08T01:18:59;103054.25;;;8.11;83.96
64368;BME280;50692;53.314;-6.300;2023-02-08T01:21:45;103049.00;;;8.11;83.78
64368;BME280;50692;53.314;-6.300;2023-02-08T01:24:34;103053.38;;;8.12;83.83
64368;BME280;50692;53.314;-6.300;2023-02-08T01:27:20;103052.47;;;8.14;83.61
64368;BME280;50692;53.314;-6.300;2023-02-08T01:30:06;103041.91;;;8.16;83.65
64368;BME280;50692;53.314;-6.300;2023-02-08T01:32:54;103039.31;;;8.14;83.67
64368;BME280;50692;53.314;-6.300;2023-02-08T01:35:40;103037.53;;;8.15;83.64
64368;BME280;50692;53.314;-6.300;2023-02-08T01:38:26;103032.25;;;8.16;83.57
64368;BME280;50692;53.314;-6.300;2023-02-08T01:41:19;103021.72;;;8.18;83.70
64368;BME280;50692;53.314;-6.300;2023-02-08T01:47:02;103018.22;;;8.16;83.74
64368;BME280;50692;53.314;-6.300;2023-02-08T01:49:48;103012.94;;;8.17;83.77
64368;BME280;50692;53.314;-6.300;2023-02-08T01:52:34;103004.16;;;8.18;83.55
64368;BME280;50692;53.314;-6.300;2023-02-08T01:55:24;103005.03;;;8.17;83.68
64368;BME280;50692;53.314;-6.300;2023-02-08T01:58:11;103004.09;;;8.28;83.04
64368;BME280;50692;53.314;-6.300;2023-02-08T02:01:00;102996.19;;;8.28;83.06
64368;BME280;50692;53.314;-6.300;2023-02-08T02:03:47;102995.34;;;8.24;83.15
64368;BME280;50692;53.314;-6.300;2023-02-08T02:06:36;102989.22;;;8.21;83.37
64368;BME280;50692;53.314;-6.300;2023-02-08T02:09:51;102985.69;;;8.20;83.46
64368;BME280;50692;53.314;-6.300;2023-02-08T02:12:39;102980.47;;;8.12;83.33
64368;BME280;50692;53.314;-6.300;2023-02-08T02:15:26;102974.34;;;8.10;83.01
64368;BME280;50692;53.314;-6.300;2023-02-08T02:18:18;102971.72;;;8.09;82.94
64368;BME280;50692;53.314;-6.300;2023-02-08T02:24:39;102963.88;;;7.98;82.56
64368;BME280;50692;53.314;-6.300;2023-02-08T02:27:53;102955.16;;;7.87;82.90
64368;BME280;50692;53.314;-6.300;2023-02-08T02:42:41;102932.53;;;7.57;83.47
64368;BME280;50692;53.314;-6.300;2023-02-08T02:49:08;102917.59;;;7.63;82.77
64368;BME280;50692;53.314;-6.300;2023-02-08T02:52:05;102907.97;;;7.59;82.47
64368;BME280;50692;53.314;-6.300;2023-02-08T02:54:54;102914.06;;;7.61;82.27
64368;BME280;50692;53.314;-6.300;2023-02-08T02:57:43;102909.66;;;7.65;81.72
64368;BME280;50692;53.314;-6.300;2023-02-08T03:00:30;102899.19;;;7.57;81.64
64368;BME280;50692;53.314;-6.300;2023-02-08T03:03:23;102893.09;;;7.49;81.42
64368;BME280;50692;53.314;-6.300;2023-02-08T03:06:13;102900.13;;;7.41;81.48
64368;BME280;50692;53.314;-6.300;2023-02-08T03:09:07;102898.44;;;7.32;81.54
64368;BME280;50692;53.314;-6.300;2023-02-08T03:15:05;102902.00;;;7.14;81.78
64368;BME280;50692;53.314;-6.300;2023-02-08T03:18:26;102890.66;;;7.09;82.26
64368;BME280;50692;53.314;-6.300;2023-02-08T03:24:15;102880.09;;;7.17;82.03
64368;BME280;50692;53.314;-6.300;2023-02-08T03:30:14;102867.81;;;7.16;81.42
64368;BME280;50692;53.314;-6.300;2023-02-08T03:33:05;102859.06;;;7.11;81.45
64368;BME280;50692;53.314;-6.300;2023-02-08T03:36:03;102862.59;;;7.07;81.26
64368;BME280;50692;53.314;-6.300;2023-02-08T03:38:52;102866.13;;;7.03;81.20
64368;BME280;50692;53.314;-6.300;2023-02-08T03:41:42;102864.38;;;6.94;81.19
64368;BME280;50692;53.314;-6.300;2023-02-08T03:44:39;102861.78;;;6.92;81.16
64368;BME280;50692;53.314;-6.300;2023-02-08T03:47:29;102851.28;;;6.86;81.23
64368;BME280;50692;53.314;-6.300;2023-02-08T03:50:21;102850.44;;;6.81;81.26
64368;BME280;50692;53.314;-6.300;2023-02-08T03:53:07;102853.09;;;6.70;81.89
64368;BME280;50692;53.314;-6.300;2023-02-08T03:55:58;102852.19;;;6.68;82.39
64368;BME280;50692;53.314;-6.300;2023-02-08T03:58:49;102861.81;;;6.76;82.18
64368;BME280;50692;53.314;-6.300;2023-02-08T04:01:44;102874.03;;;6.87;81.98
64368;BME280;50692;53.314;-6.300;2023-02-08T04:04:33;102867.94;;;6.82;81.92
64368;BME280;50692;53.314;-6.300;2023-02-08T04:07:20;102877.56;;;6.92;81.76
64368;BME280;50692;53.314;-6.300;2023-02-08T04:10:06;102882.81;;;6.92;81.90
64368;BME280;50692;53.314;-6.300;2023-02-08T04:12:52;102874.91;;;6.94;81.75
64368;BME280;50692;53.314;-6.300;2023-02-08T04:15:37;102881.06;;;6.90;81.95
64368;BME280;50692;53.314;-6.300;2023-02-08T04:18:23;102883.66;;;6.94;81.52
64368;BME280;50692;53.314;-6.300;2023-02-08T04:21:10;102874.03;;;6.90;81.25
64368;BME280;50692;53.314;-6.300;2023-02-08T04:23:56;102880.16;;;6.91;81.02
64368;BME280;50692;53.314;-6.300;2023-02-08T04:26:42;102881.06;;;6.90;80.91
64368;BME280;50692;53.314;-6.300;2023-02-08T04:29:28;102889.84;;;6.84;80.88
64368;BME280;50692;53.314;-6.300;2023-02-08T04:32:14;102893.34;;;6.79;81.27
64368;BME280;50692;53.314;-6.300;2023-02-08T04:34:59;102895.13;;;6.75;82.07
64368;BME280;50692;53.314;-6.300;2023-02-08T04:37:45;102917.03;;;6.74;81.98
64368;BME280;50692;53.314;-6.300;2023-02-08T04:40:31;102926.66;;;6.77;81.65
64368;BME280;50692;53.314;-6.300;2023-02-08T04:43:17;102938.06;;;6.77;81.75
64368;BME280;50692;53.314;-6.300;2023-02-08T04:46:03;102935.41;;;6.72;81.63
64368;BME280;50692;53.314;-6.300;2023-02-08T04:48:49;102934.56;;;6.69;82.11
64368;BME280;50692;53.314;-6.300;2023-02-08T04:51:35;102917.06;;;6.66;82.77
64368;BME280;50692;53.314;-6.300;2023-02-08T04:54:21;102909.16;;;6.66;82.84
64368;BME280;50692;53.314;-6.300;2023-02-08T04:57:11;102892.50;;;6.64;83.60
64368;BME280;50692;53.314;-6.300;2023-02-08T04:59:58;102888.13;;;6.65;84.09
64368;BME280;50692;53.314;-6.300;2023-02-08T05:02:44;102877.59;;;6.69;83.71
64368;BME280;50692;53.314;-6.300;2023-02-08T05:05:30;102864.47;;;6.68;83.76
64368;BME280;50692;53.314;-6.300;2023-02-08T05:08:17;102850.44;;;6.69;83.40
64368;BME280;50692;53.314;-6.300;2023-02-08T05:11:03;102846.94;;;6.68;83.46
64368;BME280;50692;53.314;-6.300;2023-02-08T05:13:49;102824.19;;;6.67;83.08
64368;BME280;50692;53.314;-6.300;2023-02-08T05:16:35;102814.56;;;6.66;82.50
64368;BME280;50692;53.314;-6.300;2023-02-08T05:19:21;102803.13;;;6.66;82.38
64368;BME280;50692;53.314;-6.300;2023-02-08T05:22:06;102796.16;;;6.62;81.97
64368;BME280;50692;53.314;-6.300;2023-02-08T05:24:52;102803.13;;;6.66;81.46
64368;BME280;50692;53.314;-6.300;2023-02-08T05:27:38;102791.75;;;6.65;80.93
64368;BME280;50692;53.314;-6.300;2023-02-08T05:30:24;102793.53;;;6.59;80.60
64368;BME280;50692;53.314;-6.300;2023-02-08T05:33:11;102796.19;;;6.51;80.85
64368;BME280;50692;53.314;-6.300;2023-02-08T05:35:57;102802.31;;;6.52;80.35
64368;BME280;50692;53.314;-6.300;2023-02-08T05:38:43;102800.56;;;6.47;80.33
64368;BME280;50692;53.314;-6.300;2023-02-08T05:41:29;102797.97;;;6.41;80.27
64368;BME280;50692;53.314;-6.300;2023-02-08T05:44:15;102759.47;;;6.25;79.81
64368;BME280;50692;53.314;-6.300;2023-02-08T05:47:01;102767.31;;;6.37;79.79
64368;BME280;50692;53.314;-6.300;2023-02-08T05:49:47;102776.09;;;6.36;79.55
64368;BME280;50692;53.314;-6.300;2023-02-08T05:52:33;102780.50;;;6.34;79.53
64368;BME280;50692;53.314;-6.300;2023-02-08T05:55:19;102767.34;;;6.33;78.53
64368;BME280;50692;53.314;-6.300;2023-02-08T05:58:05;102783.09;;;6.27;78.58
64368;BME280;50692;53.314;-6.300;2023-02-08T06:00:50;102782.25;;;6.15;78.82
64368;BME280;50692;53.314;-6.300;2023-02-08T06:03:39;102791.91;;;6.01;78.91
64368;BME280;50692;53.314;-6.300;2023-02-08T06:06:25;102798.91;;;5.96;79.17
64368;BME280;50692;53.314;-6.300;2023-02-08T06:09:11;102772.63;;;5.90;79.04
64368;BME280;50692;53.314;-6.300;2023-02-08T06:11:57;102737.66;;;5.74;78.91
64368;BME280;50692;53.314;-6.300;2023-02-08T06:14:43;102754.28;;;5.77;79.35
64368;BME280;50692;53.314;-6.300;2023-02-08T06:17:29;102756.00;;;5.71;79.28
64368;BME280;50692;53.314;-6.300;2023-02-08T06:20:15;102762.13;;;5.62;79.36
64368;BME280;50692;53.314;-6.300;2023-02-08T06:23:01;102766.50;;;5.51;79.56
64368;BME280;50692;53.314;-6.300;2023-02-08T06:25:47;102782.25;;;5.42;80.17
64368;BME280;50692;53.314;-6.300;2023-02-08T06:28:33;102768.22;;;5.32;80.02
64368;BME280;50692;53.314;-6.300;2023-02-08T06:31:19;102758.59;;;5.40;80.32
64368;BME280;50692;53.314;-6.300;2023-02-08T06:34:05;102764.75;;;5.35;80.61
64368;BME280;50692;53.314;-6.300;2023-02-08T06:36:51;102745.50;;;5.48;80.39
64368;BME280;50692;53.314;-6.300;2023-02-08T06:39:37;102756.88;;;5.64;79.46
64368;BME280;50692;53.314;-6.300;2023-02-08T06:42:23;102756.03;;;5.95;77.81
64368;BME280;50692;53.314;-6.300;2023-02-08T06:45:10;102753.38;;;6.15;76.92
64368;BME280;50692;53.314;-6.300;2023-02-08T06:47:56;102756.84;;;6.22;76.92
64368;BME280;50692;53.314;-6.300;2023-02-08T06:50:44;102761.25;;;6.28;77.10
64368;BME280;50692;53.314;-6.300;2023-02-08T06:53:30;102753.34;;;6.31;77.67
64368;BME280;50692;53.314;-6.300;2023-02-08T06:56:15;102764.69;;;6.42;77.47
64368;BME280;50692;53.314;-6.300;2023-02-08T06:59:02;102756.78;;;6.48;77.64
64368;BME280;50692;53.314;-6.300;2023-02-08T07:01:48;102755.91;;;6.44;78.53
64368;BME280;50692;53.314;-6.300;2023-02-08T07:04:34;102742.78;;;6.49;78.94
64368;BME280;50692;53.314;-6.300;2023-02-08T07:07:20;102745.41;;;6.49;79.06
64368;BME280;50692;53.314;-6.300;2023-02-08T07:10:06;102748.03;;;6.49;79.27
64368;BME280;50692;53.314;-6.300;2023-02-08T07:12:52;102746.25;;;6.51;79.58
64368;BME280;50692;53.314;-6.300;2023-02-08T07:15:38;102743.66;;;6.49;79.32
64368;BME280;50692;53.314;-6.300;2023-02-08T07:18:23;102747.16;;;6.48;79.42
64368;BME280;50692;53.314;-6.300;2023-02-08T07:21:09;102748.06;;;6.43;78.19
64368;BME280;50692;53.314;-6.300;2023-02-08T07:23:58;102732.28;;;6.52;77.18
64368;BME280;50692;53.314;-6.300;2023-02-08T07:26:44;102738.34;;;6.63;75.09
64368;BME280;50692;53.314;-6.300;2023-02-08T07:29:31;102726.06;;;6.67;73.38
64368;BME280;50692;53.314;-6.300;2023-02-08T07:32:17;102739.16;;;6.76;72.80
64368;BME280;50692;53.314;-6.300;2023-02-08T07:35:03;102742.63;;;6.83;72.52
64368;BME280;50692;53.314;-6.300;2023-02-08T07:37:49;102735.63;;;6.85;72.76
64368;BME280;50692;53.314;-6.300;2023-02-08T07:40:35;102734.75;;;6.84;72.69
64368;BME280;50692;53.314;-6.300;2023-02-08T07:43:21;102722.44;;;6.89;72.30
64368;BME280;50692;53.314;-6.300;2023-02-08T07:46:18;102723.28;;;6.93;69.21
64368;BME280;50692;53.314;-6.300;2023-02-08T07:49:04;102721.47;;;7.01;68.79
64368;BME280;50692;53.314;-6.300;2023-02-08T07:51:51;102723.25;;;7.02;67.43
64368;BME280;50692;53.314;-6.300;2023-02-08T07:54:36;102720.56;;;7.08;67.42
64368;BME280;50692;53.314;-6.300;2023-02-08T07:57:22;102725.81;;;7.08;67.56
64368;BME280;50692;53.314;-6.300;2023-02-08T08:00:09;102708.28;;;7.09;66.02
64368;BME280;50692;53.314;-6.300;2023-02-08T08:02:55;102718.78;;;7.13;63.49
64368;BME280;50692;53.314;-6.300;2023-02-08T08:05:42;102714.31;;;7.26;64.31
64368;BME280;50692;53.314;-6.300;2023-02-08T08:08:28;102701.16;;;7.26;64.03
64368;BME280;50692;53.314;-6.300;2023-02-08T08:11:15;102700.28;;;7.26;64.06
64368;BME280;50692;53.314;-6.300;2023-02-08T08:14:01;102706.41;;;7.28;64.15
64368;BME280;50692;53.314;-6.300;2023-02-08T08:16:47;102706.41;;;7.31;64.63
64368;BME280;50692;53.314;-6.300;2023-02-08T08:19:32;102693.28;;;7.25;65.15
64368;BME280;50692;53.314;-6.300;2023-02-08T08:22:19;102689.75;;;7.29;65.25
64368;BME280;50692;53.314;-6.300;2023-02-08T08:25:04;102667.81;;;7.28;65.16
64368;BME280;50692;53.314;-6.300;2023-02-08T08:27:50;102659.97;;;7.24;61.56
64368;BME280;50692;53.314;-6.300;2023-02-08T08:30:36;102660.56;;;7.56;56.63
64368;BME280;50692;53.314;-6.300;2023-02-08T08:33:22;102655.97;;;7.78;55.69
64368;BME280;50692;53.314;-6.300;2023-02-08T08:36:08;102626.84;;;7.92;53.38
64368;BME280;50692;53.314;-6.300;2023-02-08T08:38:54;102623.00;;;8.19;52.09
64368;BME280;50692;53.314;-6.300;2023-02-08T08:41:40;102630.75;;;8.31;51.53
64368;BME280;50692;53.314;-6.300;2023-02-08T08:44:26;102614.88;;;8.36;50.61
64368;BME280;50692;53.314;-6.300;2023-02-08T08:47:12;102620.91;;;8.47;51.79
64368;BME280;50692;53.314;-6.300;2023-02-08T08:49:58;102614.78;;;8.45;52.17
64368;BME280;50692;53.314;-6.300;2023-02-08T08:52:44;102612.25;;;8.39;53.29
64368;BME280;50692;53.314;-6.300;2023-02-08T08:55:30;102620.16;;;8.34;54.37
64368;BME280;50692;53.314;-6.300;2023-02-08T08:58:16;102626.38;;;8.30;55.07
64368;BME280;50692;53.314;-6.300;2023-02-08T09:01:02;102631.59;;;8.35;53.83
64368;BME280;50692;53.314;-6.300;2023-02-08T09:03:47;102623.63;;;8.43;54.69
64368;BME280;50692;53.314;-6.300;2023-02-08T09:06:33;102629.69;;;8.48;55.08
64368;BME280;50692;53.314;-6.300;2023-02-08T09:09:20;102620.84;;;8.53;55.48
64368;BME280;50692;53.314;-6.300;2023-02-08T09:12:07;102638.34;;;8.57;55.73
64368;BME280;50692;53.314;-6.300;2023-02-08T09:14:53;102632.13;;;8.61;55.84
64368;BME280;50692;53.314;-6.300;2023-02-08T09:17:38;102624.97;;;8.71;55.92
64368;BME280;50692;53.314;-6.300;2023-02-08T09:20:24;102609.94;;;8.78;54.56
64368;BME280;50692;53.314;-6.300;2023-02-08T09:23:10;102600.91;;;8.91;52.95
64368;BME280;50692;53.314;-6.300;2023-02-08T09:25:57;102594.47;;;9.10;52.15
64368;BME280;50692;53.314;-6.300;2023-02-08T09:28:43;102603.06;;;9.22;52.50
64368;BME280;50692;53.314;-6.300;2023-02-08T09:31:30;102587.06;;;9.31;52.36
64368;BME280;50692;53.314;-6.300;2023-02-08T09:34:17;102578.06;;;9.41;52.37
64368;BME280;50692;53.314;-6.300;2023-02-08T09:37:02;102586.66;;;9.54;52.41
64368;BME280;50692;53.314;-6.300;2023-02-08T09:39:48;102567.16;;;9.59;53.11
64368;BME280;50692;53.314;-6.300;2023-02-08T09:42:40;102584.41;;;9.79;52.85
64368;BME280;50692;53.314;-6.300;2023-02-08T09:46:04;102565.44;;;10.02;53.59
64368;BME280;50692;53.314;-6.300;2023-02-08T09:48:56;102556.81;;;10.34;54.08
64368;BME280;50692;53.314;-6.300;2023-02-08T09:51:48;102556.50;;;10.48;53.58
64368;BME280;50692;53.314;-6.300;2023-02-08T09:54:39;102553.69;;;10.55;51.89
64368;BME280;50692;53.314;-6.300;2023-02-08T09:57:30;102547.53;;;10.55;52.37
64368;BME280;50692;53.314;-6.300;2023-02-08T10:00:26;102540.47;;;10.55;52.46
64368;BME280;50692;53.314;-6.300;2023-02-08T10:06:19;102534.19;;;10.61;49.66
64368;BME280;50692;53.314;-6.300;2023-02-08T10:09:10;102539.28;;;10.69;49.43
64368;BME280;50692;53.314;-6.300;2023-02-08T10:22:12;102500.13;;;10.83;47.33
64368;BME280;50692;53.314;-6.300;2023-02-08T10:25:35;102498.13;;;10.93;47.32
64368;BME280;50692;53.314;-6.300;2023-02-08T10:31:37;102512.66;;;11.11;46.78
64368;BME280;50692;53.314;-6.300;2023-02-08T10:37:30;102493.84;;;11.20;44.92
64368;BME280;50692;53.314;-6.300;2023-02-08T10:40:31;102498.06;;;11.27;45.77
64368;BME280;50692;53.314;-6.300;2023-02-08T10:46:29;102484.38;;;11.44;44.06
64368;BME280;50692;53.314;-6.300;2023-02-08T10:49:43;102492.16;;;11.50;43.20
64368;BME280;50692;53.314;-6.300;2023-02-08T10:52:34;102494.44;;;11.62;44.07
64368;BME280;50692;53.314;-6.300;2023-02-08T10:55:20;102486.31;;;11.68;44.59
64368;BME280;50692;53.314;-6.300;2023-02-08T10:58:19;102498.22;;;11.83;44.78
64368;BME280;50692;53.314;-6.300;2023-02-08T11:01:06;102489.13;;;11.93;44.75
64368;BME280;50692;53.314;-6.300;2023-02-08T11:04:04;102487.78;;;12.08;44.84
64368;BME280;50692;53.314;-6.300;2023-02-08T11:06:50;102484.84;;;12.17;44.98
64368;BME280;50692;53.314;-6.300;2023-02-08T11:09:38;102496.94;;;12.26;43.97
64368;BME280;50692;53.314;-6.300;2023-02-08T11:12:24;102474.66;;;12.32;44.14
64368;BME280;50692;53.314;-6.300;2023-02-08T11:15:26;102481.38;;;12.43;44.72
64368;BME280;50692;53.314;-6.300;2023-02-08T11:18:37;102455.19;;;12.59;44.75
64368;BME280;50692;53.314;-6.300;2023-02-08T11:21:35;102452.34;;;12.65;44.69
64368;BME280;50692;53.314;-6.300;2023-02-08T11:24:40;102456.69;;;12.68;44.79
64368;BME280;50692;53.314;-6.300;2023-02-08T11:33:16;102441.00;;;13.10;45.12
64368;BME280;50692;53.314;-6.300;2023-02-08T11:36:05;102437.06;;;13.22;45.63
64368;BME280;50692;53.314;-6.300;2023-02-08T11:38:52;102431.03;;;13.42;45.71
64368;BME280;50692;53.314;-6.300;2023-02-08T11:41:42;102415.06;;;13.43;45.49
64368;BME280;50692;53.314;-6.300;2023-02-08T11:44:35;102398.84;;;13.50;44.76
64368;BME280;50692;53.314;-6.300;2023-02-08T11:47:27;102400.50;;;13.30;42.88
64368;BME280;50692;53.314;-6.300;2023-02-08T11:53:45;102393.97;;;12.65;42.84
64368;BME280;50692;53.314;-6.300;2023-02-08T11:56:32;102376.13;;;12.44;43.26
64368;BME280;50692;53.314;-6.300;2023-02-08T11:59:20;102371.47;;;12.26;44.17
64368;BME280;50692;53.314;-6.300;2023-02-08T12:02:28;102352.94;;;12.24;44.61
64368;BME280;50692;53.314;-6.300;2023-02-08T12:05:17;102340.13;;;12.12;45.39
64368;BME280;50692;53.314;-6.300;2023-02-08T12:08:38;102349.44;;;12.23;45.62
64368;BME280;50692;53.314;-6.300;2023-02-08T12:17:30;102330.84;;;12.75;45.37
64368;BME280;50692;53.314;-6.300;2023-02-08T12:23:27;102315.38;;;12.86;45.43
64368;BME280;50692;53.314;-6.300;2023-02-08T12:50:45;102278.94;;;12.18;44.86
64368;BME280;50692;53.314;-6.300;2023-02-08T12:53:49;102271.28;;;12.09;45.28
64368;BME280;50692;53.314;-6.300;2023-02-08T12:56:40;102271.50;;;12.03;45.09
64368;BME280;50692;53.314;-6.300;2023-02-08T12:59:36;102251.59;;;11.91;45.06
64368;BME280;50692;53.314;-6.300;2023-02-08T13:02:45;102260.38;;;11.93;46.00
64368;BME280;50692;53.314;-6.300;2023-02-08T13:05:34;102251.03;;;12.08;46.51
64368;BME280;50692;53.314;-6.300;2023-02-08T13:11:35;102245.28;;;12.20;45.48
64368;BME280;50692;53.314;-6.300;2023-02-08T13:14:38;102242.78;;;12.15;45.54
64368;BME280;50692;53.314;-6.300;2023-02-08T13:17:35;102222.94;;;12.27;45.49
64368;BME280;50692;53.314;-6.300;2023-02-08T13:20:42;102236.91;;;12.32;45.15
64368;BME280;50692;53.314;-6.300;2023-02-08T13:23:37;102232.84;;;12.22;44.65
64368;BME280;50692;53.314;-6.300;2023-02-08T13:26:27;102231.81;;;12.26;45.39
64368;BME280;50692;53.314;-6.300;2023-02-08T13:29:19;102224.13;;;12.18;44.52
64368;BME280;50692;53.314;-6.300;2023-02-08T13:35:18;102203.13;;;12.12;45.81
64368;BME280;50692;53.314;-6.300;2023-02-08T13:38:18;102185.03;;;12.00;44.99
64368;BME280;50692;53.314;-6.300;2023-02-08T13:41:13;102184.88;;;12.05;45.37
64368;BME280;50692;53.314;-6.300;2023-02-08T13:44:15;102181.81;;;12.15;45.16
64368;BME280;50692;53.314;-6.300;2023-02-08T13:47:04;102165.75;;;11.95;44.50
64368;BME280;50692;53.314;-6.300;2023-02-08T13:49:54;102157.53;;;12.03;45.22
64368;BME280;50692;53.314;-6.300;2023-02-08T13:52:47;102167.38;;;11.99;44.75
64368;BME280;50692;53.314;-6.300;2023-02-08T13:55:57;102144.75;;;11.90;44.16
64368;BME280;50692;53.314;-6.300;2023-02-08T14:01:34;102115.53;;;11.92;45.19
64368;BME280;50692;53.314;-6.300;2023-02-08T14:04:32;102131.38;;;11.93;46.83
64368;BME280;50692;53.314;-6.300;2023-02-08T14:10:25;102120.16;;;11.85;46.80
64368;BME280;50692;53.314;-6.300;2023-02-08T14:13:26;102101.88;;;11.77;46.93
64368;BME280;50692;53.314;-6.300;2023-02-08T14:16:32;102121.16;;;11.81;47.14
64368;BME280;50692;53.314;-6.300;2023-02-08T14:19:22;102117.84;;;11.76;48.22
64368;BME280;50692;53.314;-6.300;2023-02-08T14:28:01;102114.69;;;11.65;48.06
64368;BME280;50692;53.314;-6.300;2023-02-08T14:30:50;102114.59;;;11.68;49.10
64368;BME280;50692;53.314;-6.300;2023-02-08T14:33:41;102122.78;;;11.60;49.96
64368;BME280;50692;53.314;-6.300;2023-02-08T14:36:34;102123.72;;;11.59;50.54
64368;BME280;50692;53.314;-6.300;2023-02-08T14:39:29;102117.00;;;11.49;50.87
64368;BME280;50692;53.314;-6.300;2023-02-08T14:45:38;102113.38;;;11.26;52.30
64368;BME280;50692;53.314;-6.300;2023-02-08T14:48:45;102118.06;;;11.18;53.20
64368;BME280;50692;53.314;-6.300;2023-02-08T14:51:36;102112.19;;;11.09;54.13
64368;BME280;50692;53.314;-6.300;2023-02-08T14:54:28;102119.56;;;10.99;54.45
64368;BME280;50692;53.314;-6.300;2023-02-08T14:57:26;102108.38;;;10.91;54.55
64368;BME280;50692;53.314;-6.300;2023-02-08T15:00:20;102128.06;;;10.82;55.06
64368;BME280;50692;53.314;-6.300;2023-02-08T15:03:13;102094.66;;;10.78;55.17
64368;BME280;50692;53.314;-6.300;2023-02-08T15:08:56;102101.94;;;10.71;55.29
64368;BME280;50692;53.314;-6.300;2023-02-08T15:11:48;102078.25;;;10.67;55.10
64368;BME280;50692;53.314;-6.300;2023-02-08T15:14:37;102073.81;;;10.69;54.85
64368;BME280;50692;53.314;-6.300;2023-02-08T15:17:38;102107.44;;;10.64;54.72
64368;BME280;50692;53.314;-6.300;2023-02-08T15:20:28;102088.13;;;10.62;54.78
64368;BME280;50692;53.314;-6.300;2023-02-08T15:23:20;102089.06;;;10.61;55.13
64368;BME280;50692;53.314;-6.300;2023-02-08T15:26:21;102074.41;;;10.49;55.43
64368;BME280;50692;53.314;-6.300;2023-02-08T15:29:38;102088.38;;;10.54;55.21
64368;BME280;50692;53.314;-6.300;2023-02-08T15:32:26;102087.69;;;10.47;55.37
64368;BME280;50692;53.314;-6.300;2023-02-08T15:35:18;102096.34;;;10.52;54.98
64368;BME280;50692;53.314;-6.300;2023-02-08T15:38:15;102099.97;;;10.50;54.70
64368;BME280;50692;53.314;-6.300;2023-02-08T15:41:11;102106.13;;;10.49;54.98
64368;BME280;50692;53.314;-6.300;2023-02-08T15:44:22;102106.97;;;10.51;55.00
64368;BME280;50692;53.314;-6.300;2023-02-08T15:47:20;102104.59;;;10.42;55.68
64368;BME280;50692;53.314;-6.300;2023-02-08T15:50:16;102108.16;;;10.41;55.88
64368;BME280;50692;53.314;-6.300;2023-02-08T15:53:05;102108.06;;;10.44;55.77
64368;BME280;50692;53.314;-6.300;2023-02-08T15:55:57;102125.66;;;10.45;55.87
64368;BME280;50692;53.314;-6.300;2023-02-08T15:58:50;102126.75;;;10.38;56.61
64368;BME280;50692;53.314;-6.300;2023-02-08T16:01:38;102124.09;;;10.38;57.00
64368;BME280;50692;53.314;-6.300;2023-02-08T16:04:25;102130.47;;;10.30;57.78
64368;BME280;50692;53.314;-6.300;2023-02-08T16:13:39;102127.41;;;10.15;59.22
64368;BME280;50692;53.314;-6.300;2023-02-08T16:19:27;102152.25;;;10.07;60.05
64368;BME280;50692;53.314;-6.300;2023-02-08T16:31:18;102145.91;;;9.82;62.13
64368;BME280;50692;53.314;-6.300;2023-02-08T16:34:13;102161.13;;;9.72;62.77
64368;BME280;50692;53.314;-6.300;2023-02-08T16:37:01;102161.97;;;9.74;63.02
64368;BME280;50692;53.314;-6.300;2023-02-08T16:42:37;102156.84;;;9.68;63.58
64368;BME280;50692;53.314;-6.300;2023-02-08T16:45:28;102149.84;;;9.66;63.68
64368;BME280;50692;53.314;-6.300;2023-02-08T16:48:33;102161.34;;;9.63;64.20
64368;BME280;50692;53.314;-6.300;2023-02-08T16:51:29;102161.50;;;9.58;64.72
64368;BME280;50692;53.314;-6.300;2023-02-08T16:54:20;102157.19;;;9.54;64.79
64368;BME280;50692;53.314;-6.300;2023-02-08T16:57:06;102138.84;;;9.50;65.90
64368;BME280;50692;53.314;-6.300;2023-02-08T16:59:53;102153.09;;;9.43;66.73
64368;BME280;50692;53.314;-6.300;2023-02-08T17:02:41;102158.47;;;9.40;67.21
64368;BME280;50692;53.314;-6.300;2023-02-08T17:05:29;102160.44;;;9.30;67.49
64368;BME280;50692;53.314;-6.300;2023-02-08T17:08:18;102176.34;;;9.27;67.74